createdAt,value
2019-04-25T00:02:19.234Z,33.80
2019-04-25T00:04:52.482Z,30.65
2019-04-25T00:07:25.994Z,26.90
2019-04-25T00:09:59.017Z,25.95
2019-04-25T00:12:33.411Z,30.45
2019-04-25T00:15:07.314Z,25.52
2019-04-25T00:17:42.298Z,32.83
2019-04-25T00:20:17.261Z,27.10
2019-04-25T00:23:02.033Z,28.95
2019-04-25T00:25:59.235Z,29.05
2019-04-25T00:28:33.166Z,27.70
2019-04-25T00:31:08.173Z,27.20
2019-04-25T00:33:43.995Z,24.02
2019-04-25T00:36:17.528Z,27.98
2019-04-25T00:38:52.321Z,27.67
2019-04-25T00:41:26.681Z,26.82
2019-04-25T00:44:00.520Z,31.42
2019-04-25T00:46:34.427Z,24.77
2019-04-25T00:49:07.769Z,24.95
2019-04-25T00:51:42.679Z,26.68
2019-04-25T00:54:15.153Z,27.37
2019-04-25T00:56:49.392Z,29.35
2019-04-25T00:59:47.488Z,26.68
2019-04-25T01:02:45.288Z,26.40
2019-04-25T01:05:19.513Z,27.65
2019-04-25T01:07:53.567Z,24.27
2019-04-25T01:10:28.082Z,27.55
2019-04-25T01:13:03.115Z,29.30
2019-04-25T01:15:36.316Z,26.62
2019-04-25T01:18:09.678Z,25.43
2019-04-25T01:20:43.434Z,24.55
2019-04-25T01:23:16.275Z,24.60
2019-04-25T01:25:49.893Z,31.62
2019-04-25T01:28:24.410Z,23.80
2019-04-25T01:30:58.664Z,22.58
2019-04-25T01:33:33.359Z,28.95
2019-04-25T01:36:26.246Z,30.62
2019-04-25T01:39:21.681Z,32.28
2019-04-25T01:42:11.813Z,25.30
2019-04-25T01:44:47.901Z,25.55
2019-04-25T01:47:23.981Z,28.35
2019-04-25T01:49:58.451Z,30.88
2019-04-25T01:52:31.496Z,35.92
2019-04-25T01:55:05.588Z,23.38
2019-04-25T01:57:39.053Z,26.15
2019-04-25T02:00:14.333Z,25.40
2019-04-25T02:02:47.739Z,25.23
2019-04-25T02:05:21.333Z,23.12
2019-04-25T02:07:55.832Z,24.55
2019-04-25T02:10:29.934Z,26.52
2019-04-25T02:13:05.739Z,22.40
2019-04-25T02:15:39.211Z,27.20
2019-04-25T02:18:13.714Z,22.85
2019-04-25T02:20:47.504Z,25.40
2019-04-25T02:23:20.623Z,27.05
2019-04-25T02:26:06.092Z,22.77
2019-04-25T02:28:29.066Z,25.12
2019-04-25T02:31:03.816Z,23.07
2019-04-25T02:33:36.735Z,27.62
2019-04-25T02:36:10.345Z,24.67
2019-04-25T02:38:44.430Z,26.15
2019-04-25T02:41:17.675Z,23.02
2019-04-25T02:43:50.910Z,24.32
2019-04-25T02:46:41.611Z,24.95
2019-04-25T02:49:40.381Z,21.90
2019-04-25T02:52:19.783Z,22.50
2019-04-25T02:54:55.717Z,30.05
2019-04-25T02:57:29.394Z,26.73
2019-04-25T03:00:07.353Z,18.67
2019-04-25T03:02:39.693Z,25.60
2019-04-25T03:05:14.361Z,25.68
2019-04-25T03:07:48.518Z,19.17
2019-04-25T03:10:26.664Z,24.20
2019-04-25T03:12:59.045Z,25.77
2019-04-25T03:15:34.241Z,20.10
2019-04-25T03:18:11.898Z,22.00
2019-04-25T03:21:02.963Z,20.72
2019-04-25T03:23:42.561Z,23.67
2019-04-25T03:26:15.776Z,19.27
2019-04-25T03:28:49.737Z,23.98
2019-04-25T03:31:27.026Z,21.82
2019-04-25T03:33:58.359Z,25.92
2019-04-25T03:36:33.800Z,23.80
2019-04-25T03:39:08.772Z,22.17
2019-04-25T03:41:41.567Z,30.95
2019-04-25T03:44:15.052Z,27.82
2019-04-25T03:46:48.653Z,23.12
2019-04-25T03:49:21.928Z,18.73
2019-04-25T03:51:55.495Z,26.35
2019-04-25T03:54:29.129Z,25.23
2019-04-25T03:57:04.922Z,30.02
2019-04-25T03:59:36.865Z,21.15
2019-04-25T04:02:09.870Z,28.85
2019-04-25T04:04:43.616Z,23.70
2019-04-25T04:07:16.335Z,22.90
2019-04-25T04:09:50.109Z,26.48
2019-04-25T04:12:24.301Z,24.82
2019-04-25T04:14:58.319Z,22.82
2019-04-25T04:17:53.921Z,23.32
2019-04-25T04:20:49.011Z,18.80
2019-04-25T04:23:37.681Z,25.05
2019-04-25T04:26:13.395Z,24.20
2019-04-25T04:28:46.766Z,20.00
2019-04-25T04:31:19.989Z,17.70
2019-04-25T04:33:53.293Z,23.60
2019-04-25T04:36:26.630Z,21.05
2019-04-25T04:39:00.204Z,20.50
2019-04-25T04:41:33.869Z,21.85
2019-04-25T04:44:08.325Z,25.02
2019-04-25T04:46:43.894Z,20.68
2019-04-25T04:49:17.274Z,20.57
2019-04-25T04:51:51.275Z,22.95
2019-04-25T04:54:25.113Z,23.90
2019-04-25T04:56:58.396Z,23.52
2019-04-25T04:59:33.680Z,23.52
2019-04-25T05:02:30.572Z,25.77
2019-04-25T05:05:23.485Z,23.87
2019-04-25T05:08:04.927Z,24.07
2019-04-25T05:10:38.391Z,22.73
2019-04-25T05:13:12.146Z,23.22
2019-04-25T05:15:46.552Z,24.82
2019-04-25T05:18:31.584Z,25.08
2019-04-25T05:20:55.674Z,22.73
2019-04-25T05:23:29.259Z,24.92
2019-04-25T05:26:04.274Z,20.90
2019-04-25T05:28:37.869Z,23.10
2019-04-25T05:31:28.643Z,23.45
2019-04-25T05:34:03.691Z,23.95
2019-04-25T05:36:40.025Z,20.90
2019-04-25T05:39:17.093Z,29.45
2019-04-25T05:42:20.732Z,22.25
2019-04-25T05:44:54.155Z,24.80
2019-04-25T05:47:28.245Z,21.68
2019-04-25T05:50:02.112Z,25.10
2019-04-25T05:52:35.392Z,25.72
2019-04-25T05:55:08.470Z,27.67
2019-04-25T05:57:47.718Z,24.43
2019-04-25T06:00:18.954Z,24.07
2019-04-25T06:02:53.274Z,26.27
2019-04-25T06:05:28.391Z,23.18
2019-04-25T06:08:01.872Z,22.67
2019-04-25T06:10:56.566Z,25.55
2019-04-25T06:13:46.245Z,23.65
2019-04-25T06:16:27.035Z,35.05
2019-04-25T06:19:13.636Z,24.15
2019-04-25T06:21:41.294Z,22.45
2019-04-25T06:24:37.703Z,22.98
2019-04-25T06:27:29.342Z,25.17
2019-04-25T06:30:17.470Z,27.30
2019-04-25T06:32:51.076Z,27.15
2019-04-25T06:35:25.163Z,26.90
2019-04-25T06:37:58.664Z,25.27
2019-04-25T06:40:31.146Z,28.45
2019-04-25T06:43:03.653Z,24.12
2019-04-25T06:45:44.158Z,22.05
2019-04-25T06:48:28.969Z,22.10
2019-04-25T06:51:04.063Z,27.15
2019-04-25T06:53:37.357Z,26.85
2019-04-25T06:56:11.115Z,28.60
2019-04-25T06:58:44.660Z,21.33
2019-04-25T07:01:18.409Z,29.12
2019-04-25T07:03:51.561Z,29.55
2019-04-25T07:06:26.069Z,23.83
2019-04-25T07:09:00.108Z,20.92
2019-04-25T07:11:34.890Z,25.72
2019-04-25T07:14:09.037Z,23.27
2019-04-25T07:16:43.314Z,26.02
2019-04-25T07:19:17.643Z,29.80
2019-04-25T07:21:51.264Z,30.43
2019-04-25T07:24:26.921Z,27.73
2019-04-25T07:27:17.875Z,24.63
2019-04-25T07:30:13.510Z,20.17
2019-04-25T07:32:57.427Z,25.77
2019-04-25T07:35:31.222Z,23.95
2019-04-25T07:38:05.303Z,30.15
2019-04-25T07:40:39.567Z,29.87
2019-04-25T07:43:13.456Z,26.75
2019-04-25T07:45:46.796Z,27.02
2019-04-25T07:48:22.750Z,28.27
2019-04-25T07:50:55.907Z,31.00
2019-04-25T07:53:30.727Z,24.60
2019-04-25T07:56:06.187Z,25.12
2019-04-25T07:58:50.342Z,22.45
2019-04-25T08:01:19.317Z,23.10
2019-04-25T08:03:53.813Z,19.95
2019-04-25T08:06:27.945Z,31.65
2019-04-25T08:09:02.092Z,25.68
2019-04-25T08:11:36.236Z,22.82
2019-04-25T08:14:17.341Z,28.57
2019-04-25T08:16:53.773Z,18.50
2019-04-25T08:19:29.648Z,23.60
2019-04-25T08:22:03.621Z,22.87
2019-04-25T08:24:39.197Z,31.77
2019-04-25T08:27:13.355Z,25.95
2019-04-25T08:29:47.250Z,24.80
2019-04-25T08:32:21.496Z,25.75
2019-04-25T08:34:54.746Z,25.17
2019-04-25T08:37:30.302Z,21.65
2019-04-25T08:40:03.980Z,24.27
2019-04-25T08:42:37.957Z,25.40
2019-04-25T08:45:13.319Z,25.85
2019-04-25T08:47:47.178Z,24.55
2019-04-25T08:50:55.280Z,22.85
2019-04-25T08:53:32.791Z,28.17
2019-04-25T08:56:14.947Z,21.00
2019-04-25T08:59:07.964Z,27.98
2019-04-25T09:02:05.299Z,19.95
2019-04-25T09:04:55.089Z,28.00
2019-04-25T09:07:28.320Z,27.27
2019-04-25T09:10:03.472Z,21.25
2019-04-25T09:12:36.639Z,27.87
2019-04-25T09:15:11.248Z,21.85
2019-04-25T09:17:46.969Z,28.25
2019-04-25T09:20:20.468Z,23.02
2019-04-25T09:22:54.368Z,23.30
2019-04-25T09:25:28.617Z,17.77
2019-04-25T09:28:00.986Z,25.35
2019-04-25T09:30:35.835Z,25.17
2019-04-25T09:33:10.046Z,18.98
2019-04-25T09:35:45.719Z,22.42
2019-04-25T09:38:19.929Z,20.08
2019-04-25T09:40:54.132Z,21.65
2019-04-25T09:43:27.576Z,21.57
2019-04-25T09:46:09.329Z,21.77
2019-04-25T09:48:56.824Z,25.08
2019-04-25T09:51:33.671Z,19.73
2019-04-25T09:54:23.884Z,24.72
2019-04-25T09:57:01.541Z,18.92
2019-04-25T09:59:35.289Z,21.48
2019-04-25T10:02:10.490Z,23.12
2019-04-25T10:04:46.089Z,15.98
2019-04-25T10:07:19.186Z,18.02
2019-04-25T10:09:54.632Z,20.20
2019-04-25T10:12:28.112Z,17.15
2019-04-25T10:15:21.207Z,18.37
2019-04-25T10:17:54.619Z,12.75
2019-04-25T10:20:28.397Z,16.95
2019-04-25T10:23:02.113Z,18.52
2019-04-25T10:25:35.687Z,19.73
2019-04-25T10:28:10.535Z,23.67
2019-04-25T10:30:44.522Z,17.25
2019-04-25T10:33:19.890Z,16.77
2019-04-25T10:35:58.958Z,23.02
2019-04-25T10:38:29.783Z,19.77
2019-04-25T10:41:04.269Z,15.10
2019-04-25T10:43:38.010Z,18.05
2019-04-25T10:46:11.576Z,25.75
2019-04-25T10:48:44.785Z,17.32
2019-04-25T10:51:20.241Z,18.67
2019-04-25T10:53:55.026Z,22.27
2019-04-25T10:56:29.188Z,16.42
2019-04-25T10:59:04.138Z,23.98
2019-04-25T11:01:38.026Z,15.15
2019-04-25T11:04:20.990Z,21.95
2019-04-25T11:06:55.304Z,22.15
2019-04-25T11:09:29.197Z,20.10
2019-04-25T11:12:02.729Z,24.85
2019-04-25T11:14:37.282Z,23.67
2019-04-25T11:17:10.550Z,18.42
2019-04-25T11:19:44.550Z,23.65
2019-04-25T11:22:17.917Z,19.75
2019-04-25T11:24:50.925Z,17.60
2019-04-25T11:27:23.972Z,18.98
2019-04-25T11:30:08.545Z,18.60
2019-04-25T11:32:34.012Z,14.53
2019-04-25T11:35:07.666Z,18.52
2019-04-25T11:37:41.204Z,17.98
2019-04-25T11:40:37.876Z,16.73
2019-04-25T11:43:10.881Z,16.65
2019-04-25T11:45:45.939Z,18.82
2019-04-25T11:48:20.311Z,21.10
2019-04-25T11:50:55.803Z,14.43
2019-04-25T11:53:28.975Z,17.70
2019-04-25T11:56:03.719Z,17.75
2019-04-25T11:58:37.220Z,17.42
2019-04-25T12:01:13.757Z,18.48
2019-04-25T12:03:48.967Z,22.25
2019-04-25T12:06:24.345Z,18.15
2019-04-25T12:08:57.595Z,11.30
2019-04-25T12:11:31.352Z,13.13
2019-04-25T12:14:04.529Z,13.45
2019-04-25T12:16:38.204Z,12.90
2019-04-25T12:19:11.500Z,13.35
2019-04-25T12:21:44.734Z,17.60
2019-04-25T12:24:18.546Z,21.35
2019-04-25T12:26:51.334Z,16.57
2019-04-25T12:29:24.594Z,15.08
2019-04-25T12:31:58.591Z,13.83
2019-04-25T12:34:33.652Z,10.82
2019-04-25T12:37:07.367Z,11.68
2019-04-25T12:39:40.744Z,13.28
2019-04-25T12:42:14.453Z,14.83
2019-04-25T12:45:12.092Z,15.08
2019-04-25T12:47:47.659Z,13.72
2019-04-25T12:50:23.070Z,10.53
2019-04-25T12:52:56.091Z,12.25
2019-04-25T12:55:28.876Z,14.90
2019-04-25T12:58:03.464Z,16.85
2019-04-25T13:00:47.494Z,15.40
2019-04-25T13:03:14.317Z,8.68
2019-04-25T13:05:48.181Z,16.85
2019-04-25T13:08:21.464Z,15.95
2019-04-25T13:11:07.338Z,16.52
2019-04-25T13:13:30.955Z,20.12
2019-04-25T13:16:05.174Z,15.10
2019-04-25T13:18:38.844Z,15.40
2019-04-25T13:21:13.681Z,19.98
2019-04-25T13:23:47.900Z,17.32
2019-04-25T13:26:24.684Z,14.03
2019-04-25T13:29:18.255Z,18.23
2019-04-25T13:32:09.662Z,15.70
2019-04-25T13:34:46.263Z,14.70
2019-04-25T13:37:19.425Z,14.38
2019-04-25T13:39:54.066Z,15.85
2019-04-25T13:42:27.702Z,20.37
2019-04-25T13:45:01.772Z,22.15
2019-04-25T13:47:35.909Z,14.63
2019-04-25T13:50:09.011Z,14.60
2019-04-25T13:52:43.238Z,16.12
2019-04-25T13:55:17.087Z,15.50
2019-04-25T13:57:50.297Z,17.65
2019-04-25T14:00:26.068Z,20.55
2019-04-25T14:03:00.458Z,15.00
2019-04-25T14:05:35.334Z,12.18
2019-04-25T14:08:09.360Z,12.00
2019-04-25T14:10:44.299Z,15.35
2019-04-25T14:13:18.280Z,15.93
2019-04-25T14:16:25.392Z,12.25
2019-04-25T14:19:25.993Z,15.05
2019-04-25T14:22:01.958Z,16.60
2019-04-25T14:24:35.896Z,15.50
2019-04-25T14:27:10.058Z,16.20
2019-04-25T14:29:43.721Z,16.67
2019-04-25T14:32:19.003Z,14.78
2019-04-25T14:34:54.472Z,15.43
2019-04-25T14:37:31.778Z,15.03
2019-04-25T14:40:03.935Z,16.32
2019-04-25T14:42:36.917Z,12.47
2019-04-25T14:45:10.485Z,15.63
2019-04-25T14:47:43.807Z,17.35
2019-04-25T14:50:17.188Z,14.98
2019-04-25T14:52:51.320Z,15.53
2019-04-25T14:56:01.109Z,16.42
2019-04-25T14:58:36.897Z,15.85
2019-04-25T15:01:12.886Z,18.90
2019-04-25T15:03:46.631Z,12.03
2019-04-25T15:06:20.013Z,12.18
2019-04-25T15:08:53.331Z,13.05
2019-04-25T15:11:27.377Z,16.97
2019-04-25T15:14:01.065Z,10.55
2019-04-25T15:16:34.677Z,12.10
2019-04-25T15:19:08.563Z,15.28
2019-04-25T15:21:41.859Z,11.68
2019-04-25T15:24:14.806Z,11.03
2019-04-25T15:26:48.595Z,13.25
2019-04-25T15:29:22.940Z,13.25
2019-04-25T15:31:56.426Z,14.35
2019-04-25T15:34:36.150Z,12.28
2019-04-25T15:37:15.445Z,10.40
2019-04-25T15:39:53.395Z,12.03
2019-04-25T15:42:44.136Z,10.53
2019-04-25T15:45:35.317Z,13.35
2019-04-25T15:48:09.941Z,10.58
2019-04-25T15:50:43.509Z,12.30
2019-04-25T15:53:17.208Z,18.20
2019-04-25T15:55:50.579Z,13.20
2019-04-25T15:58:24.214Z,9.38
2019-04-25T16:00:57.394Z,11.85
2019-04-25T16:03:30.832Z,12.25
2019-04-25T16:06:04.712Z,12.35
2019-04-25T16:08:38.014Z,8.60
2019-04-25T16:11:12.221Z,11.90
2019-04-25T16:13:45.661Z,17.42
2019-04-25T16:16:19.354Z,14.35
2019-04-25T16:18:53.086Z,11.15
2019-04-25T16:21:27.802Z,11.80
2019-04-25T16:24:01.026Z,15.55
2019-04-25T16:26:35.504Z,15.75
2019-04-25T16:29:27.844Z,16.27
2019-04-25T16:32:03.592Z,15.35
2019-04-25T16:34:37.595Z,15.53
2019-04-25T16:37:11.037Z,11.00
2019-04-25T16:39:45.499Z,12.85
2019-04-25T16:42:19.344Z,12.63
2019-04-25T16:44:53.556Z,15.05
2019-04-25T16:47:29.921Z,15.53
2019-04-25T16:50:03.278Z,15.30
2019-04-25T16:52:36.488Z,14.60
2019-04-25T16:55:10.785Z,13.83
2019-04-25T16:57:43.434Z,14.87
2019-04-25T17:00:50.119Z,14.03
2019-04-25T17:03:25.319Z,12.75
2019-04-25T17:05:58.180Z,23.57
2019-04-25T17:08:32.434Z,13.80
2019-04-25T17:11:05.169Z,16.62
2019-04-25T17:13:43.381Z,17.52
2019-04-25T17:16:33.242Z,18.57
2019-04-25T17:19:12.459Z,15.35
2019-04-25T17:21:44.528Z,15.25
2019-04-25T17:24:17.407Z,13.30
2019-04-25T17:26:52.586Z,14.93
2019-04-25T17:29:26.119Z,15.72
2019-04-25T17:32:23.485Z,14.55
2019-04-25T17:35:06.372Z,15.63
2019-04-25T17:38:00.459Z,17.87
2019-04-25T17:40:32.843Z,17.15
2019-04-25T17:43:11.275Z,13.38
2019-04-25T17:45:42.123Z,18.85
2019-04-25T17:48:14.856Z,16.05
2019-04-25T17:50:47.705Z,24.05
2019-04-25T17:53:20.000Z,21.75
2019-04-25T17:55:52.921Z,23.00
2019-04-25T17:58:25.301Z,16.02
2019-04-25T18:00:59.017Z,20.15
2019-04-25T18:03:33.554Z,18.85
2019-04-25T18:06:05.784Z,22.95
2019-04-25T18:08:39.533Z,22.60
2019-04-25T18:11:13.197Z,24.47
2019-04-25T18:13:45.960Z,29.00
2019-04-25T18:16:42.318Z,24.50
2019-04-25T18:19:38.605Z,24.47
2019-04-25T18:22:18.461Z,23.35
2019-04-25T18:25:04.590Z,27.58
2019-04-25T18:27:44.801Z,24.85
2019-04-25T18:30:17.437Z,24.25
2019-04-25T18:33:10.238Z,24.85
2019-04-25T18:35:40.273Z,27.73
2019-04-25T18:38:27.911Z,28.15
2019-04-25T18:41:10.895Z,26.73
2019-04-25T18:43:53.194Z,27.93
2019-04-25T18:46:31.136Z,26.80
2019-04-25T18:49:04.229Z,29.40
2019-04-25T18:51:38.539Z,30.90
2019-04-25T18:54:43.260Z,28.42
2019-04-25T18:57:37.522Z,27.37
2019-04-25T19:00:44.060Z,28.38
2019-04-25T19:03:46.869Z,30.82
2019-04-25T19:06:21.348Z,31.48
2019-04-25T19:08:53.877Z,26.30
2019-04-25T19:11:27.372Z,22.70
2019-04-25T19:14:00.832Z,23.22
2019-04-25T19:16:34.530Z,23.42
2019-04-25T19:19:07.402Z,20.62
2019-04-25T19:21:40.717Z,31.20
2019-04-25T19:24:15.424Z,24.90
2019-04-25T19:26:48.927Z,23.75
2019-04-25T19:29:20.970Z,25.75
2019-04-25T19:31:55.683Z,24.35
2019-04-25T19:34:28.501Z,20.88
2019-04-25T19:37:01.859Z,23.83
2019-04-25T19:39:35.993Z,25.35
2019-04-25T19:42:26.641Z,25.62
2019-04-25T19:45:00.463Z,28.05
2019-04-25T19:47:34.054Z,32.85
2019-04-25T19:50:06.213Z,20.35
2019-04-25T19:52:39.100Z,32.53
2019-04-25T19:55:12.584Z,22.62
2019-04-25T19:57:44.719Z,24.02
2019-04-25T20:00:18.687Z,21.10
2019-04-25T20:03:19.890Z,22.65
2019-04-25T20:06:14.325Z,27.85
2019-04-25T20:09:08.787Z,23.77
2019-04-25T20:11:45.266Z,28.10
2019-04-25T20:14:18.550Z,22.82
2019-04-25T20:16:51.738Z,25.02
2019-04-25T20:19:24.618Z,23.87
2019-04-25T20:21:58.159Z,24.70
2019-04-25T20:24:30.679Z,32.55
2019-04-25T20:27:04.040Z,29.82
2019-04-25T20:29:36.997Z,24.47
2019-04-25T20:32:10.372Z,23.87
2019-04-25T20:34:44.594Z,24.50
2019-04-25T20:37:20.141Z,22.75
2019-04-25T20:39:54.036Z,21.48
2019-04-25T20:42:26.899Z,25.52
2019-04-25T20:45:00.567Z,24.52
2019-04-25T20:47:34.066Z,28.75
2019-04-25T20:50:07.773Z,22.20
2019-04-25T20:52:40.623Z,23.95
2019-04-25T20:55:14.312Z,24.85
2019-04-25T20:57:48.019Z,29.80
2019-04-25T21:00:43.202Z,22.70
2019-04-25T21:03:16.885Z,28.73
2019-04-25T21:05:53.090Z,28.45
2019-04-25T21:08:26.802Z,26.02
2019-04-25T21:11:00.490Z,27.40
2019-04-25T21:13:57.020Z,23.60
2019-04-25T21:16:57.170Z,24.77
2019-04-25T21:19:32.473Z,23.02
2019-04-25T21:22:06.223Z,24.50
2019-04-25T21:24:39.182Z,24.60
2019-04-25T21:27:12.432Z,23.05
2019-04-25T21:29:46.630Z,24.02
2019-04-25T21:32:21.159Z,22.10
2019-04-25T21:34:55.023Z,22.85
2019-04-25T21:37:28.393Z,16.27
2019-04-25T21:40:14.813Z,18.00
2019-04-25T21:42:53.896Z,28.45
2019-04-25T21:45:28.221Z,22.82
2019-04-25T21:48:01.612Z,19.45
2019-04-25T21:50:35.887Z,21.40
2019-04-25T21:53:10.765Z,20.97
2019-04-25T21:55:44.572Z,27.80
2019-04-25T21:58:18.801Z,24.45
2019-04-25T22:01:10.956Z,20.55
2019-04-25T22:03:44.278Z,26.02
2019-04-25T22:06:18.092Z,23.12
2019-04-25T22:08:52.300Z,24.75
2019-04-25T22:11:26.743Z,24.02
2019-04-25T22:14:00.442Z,25.72
2019-04-25T22:16:34.454Z,20.62
2019-04-25T22:19:10.575Z,26.10
2019-04-25T22:21:44.177Z,21.37
2019-04-25T22:24:17.846Z,24.20
2019-04-25T22:26:53.635Z,23.20
2019-04-25T22:29:28.098Z,24.72
2019-04-25T22:32:08.122Z,26.23
2019-04-25T22:34:52.533Z,28.75
2019-04-25T22:37:26.552Z,17.50
2019-04-25T22:40:01.228Z,23.25
2019-04-25T22:42:34.770Z,28.27
2019-04-25T22:45:10.473Z,24.98
2019-04-25T22:47:44.231Z,26.52
2019-04-25T22:50:17.222Z,19.15
2019-04-25T22:52:50.378Z,23.25
2019-04-25T22:55:24.429Z,23.25
2019-04-25T22:57:58.338Z,24.18
2019-04-25T23:00:37.940Z,29.55
2019-04-25T23:03:33.427Z,28.17
2019-04-25T23:06:07.591Z,32.40
2019-04-25T23:08:40.569Z,22.25
2019-04-25T23:11:14.343Z,24.37
2019-04-25T23:13:47.742Z,25.23
2019-04-25T23:16:21.793Z,26.02
2019-04-25T23:18:55.331Z,24.37
2019-04-25T23:21:29.036Z,25.40
2019-04-25T23:24:02.143Z,22.40
2019-04-25T23:26:44.657Z,19.82
2019-04-25T23:29:17.680Z,20.30
2019-04-25T23:31:51.597Z,24.87
2019-04-25T23:34:25.676Z,24.05
2019-04-25T23:36:59.790Z,19.10
2019-04-25T23:39:33.645Z,22.65
2019-04-25T23:42:07.247Z,23.30
2019-04-25T23:44:41.202Z,19.57
2019-04-25T23:47:14.732Z,28.55
2019-04-25T23:49:48.428Z,20.68
2019-04-25T23:52:22.378Z,21.95
2019-04-25T23:54:55.639Z,20.08
2019-04-25T23:57:29.392Z,20.35
